CFG2362 EDDF-VTBS
Flight info
| Callsign | CFG2362 |
|---|---|
| Flight time | N/A |
| Altitude | 31000 |
| Route | SULUS4D SULUS Z650 VEMUT/N0465F330 DCT DITIS DCT TOVKA DCT ALAMU DCT BUDOP/N0467F350 DCT BALBI DCT LUGEB DCT UDROS UM859 KARDE UL851 TBN UM11 REBLO M11 RODAR A909 TUGTA/N0468F370 A909 BIBIM B450 MAMED B449 RANAH L750 MERUN G452 LKN R460 TEPAL/N0471F390 R460 CEA L507 IGONI WILLA1C |
| Aircraft | A339/H-SDE1E2E3GHIJ1J4J7LM1OP2RVWXYZ/LB1D1 |
Departure
| Time | 2026-05-08 04:55 |
|---|---|
| Airport | Frankfurt Main Airport (EDDF) |
Arrival
| Time | N/A |
|---|---|
| Airport | Suvarnabhumi Airport (VTBS) |
| Time | Latitude | Longitude | Altitude | Speed | Heading |
|---|---|---|---|---|---|
| 2026-05-08 04:14 | 50.04836 | 8.57627 | 370 ft | 0 kts | 206° |
| 2026-05-08 04:42 | 50.04843 | 8.57632 | 370 ft | 2 kts | 206° |
| 2026-05-08 04:42 | 50.04854 | 8.57641 | 370 ft | 0 kts | 206° |
| 2026-05-08 04:42 | 50.04865 | 8.57648 | 370 ft | 2 kts | 190° |
| 2026-05-08 04:42 | 50.04881 | 8.57648 | 370 ft | 2 kts | 166° |
| 2026-05-08 04:43 | 50.04895 | 8.57640 | 370 ft | 2 kts | 145° |
| 2026-05-08 04:43 | 50.04906 | 8.57624 | 370 ft | 2 kts | 123° |
| 2026-05-08 04:43 | 50.04910 | 8.57613 | 370 ft | 1 kts | 112° |
| 2026-05-08 04:43 | 50.04911 | 8.57608 | 370 ft | 0 kts | 113° |
| 2026-05-08 04:46 | 50.04880 | 8.57719 | 370 ft | 16 kts | 113° |
| 2026-05-08 04:46 | 50.04842 | 8.57851 | 372 ft | 12 kts | 123° |
| 2026-05-08 04:46 | 50.04757 | 8.57929 | 372 ft | 16 kts | 161° |
| 2026-05-08 04:46 | 50.04647 | 8.57992 | 372 ft | 17 kts | 159° |
| 2026-05-08 04:47 | 50.04553 | 8.58015 | 372 ft | 9 kts | 218° |
| 2026-05-08 04:47 | 50.04507 | 8.57870 | 371 ft | 20 kts | 250° |
| 2026-05-08 04:47 | 50.04447 | 8.57620 | 369 ft | 27 kts | 250° |
| 2026-05-08 04:47 | 50.04380 | 8.57340 | 367 ft | 27 kts | 250° |
| 2026-05-08 04:48 | 50.04314 | 8.57057 | 364 ft | 28 kts | 250° |
| 2026-05-08 04:48 | 50.04246 | 8.56772 | 362 ft | 27 kts | 250° |
| 2026-05-08 04:48 | 50.04179 | 8.56489 | 360 ft | 28 kts | 251° |
| 2026-05-08 04:48 | 50.04108 | 8.56199 | 358 ft | 28 kts | 250° |
| 2026-05-08 04:49 | 50.04040 | 8.55913 | 357 ft | 28 kts | 250° |
| 2026-05-08 04:49 | 50.03971 | 8.55624 | 355 ft | 28 kts | 250° |
| 2026-05-08 04:49 | 50.03904 | 8.55344 | 354 ft | 27 kts | 250° |
| 2026-05-08 04:49 | 50.03838 | 8.55068 | 352 ft | 27 kts | 250° |
| 2026-05-08 04:50 | 50.03771 | 8.54788 | 351 ft | 27 kts | 250° |
| 2026-05-08 04:50 | 50.03704 | 8.54507 | 349 ft | 27 kts | 249° |
| 2026-05-08 04:50 | 50.03636 | 8.54224 | 348 ft | 28 kts | 250° |
| 2026-05-08 04:50 | 50.03569 | 8.53941 | 346 ft | 27 kts | 250° |
| 2026-05-08 04:51 | 50.03503 | 8.53664 | 345 ft | 27 kts | 250° |
| 2026-05-08 04:51 | 50.03435 | 8.53382 | 344 ft | 27 kts | 250° |
| 2026-05-08 04:51 | 50.03368 | 8.53105 | 343 ft | 26 kts | 250° |
| 2026-05-08 04:51 | 50.03308 | 8.52877 | 342 ft | 16 kts | 228° |
| 2026-05-08 04:52 | 50.03198 | 8.52821 | 341 ft | 19 kts | 180° |
| 2026-05-08 04:52 | 50.03025 | 8.52821 | 341 ft | 27 kts | 179° |
| 2026-05-08 04:52 | 50.02834 | 8.52825 | 340 ft | 26 kts | 179° |
| 2026-05-08 04:52 | 50.02650 | 8.52828 | 340 ft | 26 kts | 180° |
| 2026-05-08 04:53 | 50.02477 | 8.52872 | 340 ft | 24 kts | 141° |
| 2026-05-08 04:53 | 50.02408 | 8.53099 | 340 ft | 23 kts | 80° |
| 2026-05-08 04:53 | 50.02462 | 8.53339 | 341 ft | 23 kts | 70° |
| 2026-05-08 04:53 | 50.02513 | 8.53548 | 341 ft | 15 kts | 59° |
| 2026-05-08 04:54 | 50.02575 | 8.53569 | 341 ft | 14 kts | 338° |
| 2026-05-08 04:54 | 50.02692 | 8.53492 | 341 ft | 16 kts | 340° |
| 2026-05-08 04:54 | 50.02766 | 8.53478 | 341 ft | 9 kts | 38° |
| 2026-05-08 04:54 | 50.02811 | 8.53650 | 342 ft | 40 kts | 69° |
| 2026-05-08 04:55 | 50.02984 | 8.54364 | 344 ft | 101 kts | 70° |
| 2026-05-08 04:55 | 50.03296 | 8.55683 | 351 ft | 155 kts | 70° |
| 2026-05-08 04:55 | 50.03710 | 8.57428 | 509 ft | 185 kts | 69° |
| 2026-05-08 04:55 | 50.04129 | 8.59223 | 1313 ft | 175 kts | 68° |
| 2026-05-08 04:56 | 50.04592 | 8.60989 | 1862 ft | 181 kts | 68° |
| 2026-05-08 04:56 | 50.05097 | 8.62868 | 2199 ft | 197 kts | 68° |
| 2026-05-08 04:56 | 50.05648 | 8.64932 | 2531 ft | 214 kts | 68° |
| 2026-05-08 04:56 | 50.06220 | 8.67092 | 2955 ft | 211 kts | 68° |
| 2026-05-08 04:57 | 50.06799 | 8.69292 | 3254 ft | 224 kts | 69° |
| 2026-05-08 04:57 | 50.07140 | 8.71651 | 3774 ft | 228 kts | 89° |
| 2026-05-08 04:57 | 50.06984 | 8.74163 | 4140 ft | 240 kts | 99° |
| 2026-05-08 04:57 | 50.06675 | 8.76755 | 4493 ft | 251 kts | 101° |
| 2026-05-08 04:58 | 50.06338 | 8.79465 | 5050 ft | 254 kts | 101° |
| 2026-05-08 04:58 | 50.06015 | 8.82167 | 5584 ft | 257 kts | 98° |
| 2026-05-08 04:58 | 50.05812 | 8.84985 | 5943 ft | 268 kts | 92° |
| 2026-05-08 04:58 | 50.05796 | 8.87865 | 6450 ft | 272 kts | 88° |
| 2026-05-08 04:59 | 50.05846 | 8.90823 | 7016 ft | 274 kts | 88° |
| 2026-05-08 04:59 | 50.05903 | 8.93810 | 7558 ft | 277 kts | 88° |
| 2026-05-08 04:59 | 50.05959 | 8.96776 | 8078 ft | 280 kts | 88° |
| 2026-05-08 04:59 | 50.06013 | 8.99851 | 8613 ft | 283 kts | 88° |
| 2026-05-08 05:00 | 50.06064 | 9.02893 | 9131 ft | 286 kts | 88° |
| 2026-05-08 05:00 | 50.06114 | 9.06006 | 9641 ft | 289 kts | 88° |
| 2026-05-08 05:00 | 50.06163 | 9.09151 | 10143 ft | 292 kts | 88° |
| 2026-05-08 05:00 | 50.06212 | 9.12317 | 10511 ft | 301 kts | 88° |
| 2026-05-08 05:01 | 50.06263 | 9.15663 | 10759 ft | 315 kts | 88° |
| 2026-05-08 05:01 | 50.06314 | 9.19081 | 10992 ft | 328 kts | 88° |
| 2026-05-08 05:01 | 50.06365 | 9.22728 | 11235 ft | 341 kts | 88° |
| 2026-05-08 05:01 | 50.06416 | 9.26525 | 11470 ft | 354 kts | 88° |
| 2026-05-08 05:02 | 50.06468 | 9.30458 | 11708 ft | 367 kts | 88° |
| 2026-05-08 05:02 | 50.06520 | 9.34495 | 11946 ft | 379 kts | 88° |
| 2026-05-08 05:02 | 50.06572 | 9.38620 | 12472 ft | 382 kts | 88° |
| 2026-05-08 05:02 | 50.06623 | 9.42732 | 13197 ft | 379 kts | 88° |
| 2026-05-08 05:03 | 50.06672 | 9.46784 | 13916 ft | 376 kts | 89° |
| 2026-05-08 05:03 | 50.06720 | 9.50840 | 14565 ft | 375 kts | 89° |
| 2026-05-08 05:03 | 50.06766 | 9.54888 | 15072 ft | 379 kts | 88° |
| 2026-05-08 05:03 | 50.06811 | 9.58984 | 15549 ft | 382 kts | 88° |
| 2026-05-08 05:04 | 50.06854 | 9.63097 | 16036 ft | 386 kts | 89° |
| 2026-05-08 05:04 | 50.06897 | 9.67323 | 16539 ft | 389 kts | 89° |
| 2026-05-08 05:04 | 50.06939 | 9.71520 | 17028 ft | 391 kts | 89° |
| 2026-05-08 05:04 | 50.06978 | 9.75729 | 17510 ft | 394 kts | 89° |
| 2026-05-08 05:05 | 50.07016 | 9.80032 | 17996 ft | 397 kts | 89° |
| 2026-05-08 05:05 | 50.07053 | 9.84308 | 18477 ft | 400 kts | 89° |
| 2026-05-08 05:05 | 50.07089 | 9.88643 | 18951 ft | 403 kts | 89° |
| 2026-05-08 05:05 | 50.07124 | 9.93001 | 19422 ft | 406 kts | 89° |
| 2026-05-08 05:06 | 50.07158 | 9.97419 | 19877 ft | 409 kts | 89° |
| 2026-05-08 05:06 | 50.07190 | 10.01797 | 20302 ft | 412 kts | 89° |
| 2026-05-08 05:06 | 50.07222 | 10.06276 | 20738 ft | 415 kts | 89° |
| 2026-05-08 05:06 | 50.07251 | 10.10782 | 21156 ft | 418 kts | 89° |
| 2026-05-08 05:07 | 50.07278 | 10.15282 | 21575 ft | 420 kts | 89° |
| 2026-05-08 05:07 | 50.07304 | 10.19864 | 21983 ft | 423 kts | 89° |
| 2026-05-08 05:07 | 50.07328 | 10.24442 | 22385 ft | 425 kts | 89° |
| 2026-05-08 05:07 | 50.07351 | 10.29010 | 22760 ft | 428 kts | 89° |
| 2026-05-08 05:08 | 50.07376 | 10.33705 | 23136 ft | 431 kts | 89° |
| 2026-05-08 05:08 | 50.07398 | 10.38339 | 23478 ft | 434 kts | 89° |
| 2026-05-08 05:08 | 50.07420 | 10.43058 | 23826 ft | 437 kts | 89° |
| 2026-05-08 05:08 | 50.07439 | 10.47751 | 24165 ft | 439 kts | 89° |
| 2026-05-08 05:09 | 50.07457 | 10.52522 | 24517 ft | 442 kts | 89° |
| 2026-05-08 05:09 | 50.07473 | 10.57299 | 24857 ft | 444 kts | 89° |
| 2026-05-08 05:09 | 50.07485 | 10.62117 | 25209 ft | 446 kts | 89° |
| 2026-05-08 05:09 | 50.07491 | 10.66922 | 25542 ft | 448 kts | 91° |
| 2026-05-08 05:10 | 50.07259 | 10.71776 | 25850 ft | 450 kts | 98° |
| 2026-05-08 05:10 | 50.05787 | 10.81292 | 26468 ft | 453 kts | 109° |
| 2026-05-08 05:10 | 50.04810 | 10.85906 | 26756 ft | 456 kts | 109° |
| 2026-05-08 05:11 | 50.03804 | 10.90566 | 27045 ft | 458 kts | 109° |
| 2026-05-08 05:11 | 50.02791 | 10.95269 | 27313 ft | 460 kts | 109° |
| 2026-05-08 05:11 | 50.01777 | 11.00005 | 27585 ft | 462 kts | 109° |
| 2026-05-08 05:11 | 50.00775 | 11.04704 | 27856 ft | 464 kts | 109° |
| 2026-05-08 05:12 | 49.99758 | 11.09484 | 28113 ft | 466 kts | 109° |
| 2026-05-08 05:12 | 49.98734 | 11.14287 | 28373 ft | 468 kts | 109° |
| 2026-05-08 05:12 | 49.97702 | 11.19106 | 28631 ft | 470 kts | 109° |
| 2026-05-08 05:12 | 49.96677 | 11.23890 | 28866 ft | 473 kts | 109° |
| 2026-05-08 05:13 | 49.95645 | 11.28750 | 29093 ft | 475 kts | 108° |
| 2026-05-08 05:13 | 49.94608 | 11.33649 | 29337 ft | 477 kts | 108° |
| 2026-05-08 05:13 | 49.93579 | 11.38494 | 29561 ft | 479 kts | 108° |
| 2026-05-08 05:13 | 49.92595 | 11.43467 | 29801 ft | 481 kts | 106° |
| 2026-05-08 05:14 | 49.91679 | 11.48446 | 30028 ft | 482 kts | 105° |
| 2026-05-08 05:14 | 49.90770 | 11.53420 | 30261 ft | 484 kts | 105° |
| 2026-05-08 05:14 | 49.89845 | 11.58465 | 30491 ft | 486 kts | 105° |
| 2026-05-08 05:14 | 49.88941 | 11.63495 | 30704 ft | 487 kts | 104° |
| 2026-05-08 05:15 | 49.88171 | 11.68635 | 30917 ft | 489 kts | 102° |
| 2026-05-08 05:15 | 49.87585 | 11.73800 | 31185 ft | 488 kts | 98° |
| 2026-05-08 05:15 | 49.87120 | 11.78987 | 31457 ft | 487 kts | 97° |
| 2026-05-08 05:15 | 49.86673 | 11.84181 | 31704 ft | 488 kts | 97° |
| 2026-05-08 05:16 | 49.86221 | 11.89418 | 31926 ft | 488 kts | 97° |
| 2026-05-08 05:16 | 49.85767 | 11.94572 | 32141 ft | 488 kts | 97° |
| 2026-05-08 05:16 | 49.85303 | 11.99754 | 32367 ft | 488 kts | 97° |
| 2026-05-08 05:16 | 49.84834 | 12.04965 | 32612 ft | 488 kts | 97° |
| 2026-05-08 05:17 | 49.84365 | 12.10153 | 32843 ft | 487 kts | 97° |
| 2026-05-08 05:17 | 49.83894 | 12.15352 | 33034 ft | 488 kts | 97° |
| 2026-05-08 05:17 | 49.83423 | 12.20517 | 33063 ft | 492 kts | 97° |
| 2026-05-08 05:18 | 49.82455 | 12.31041 | 33066 ft | 494 kts | 98° |
| 2026-05-08 05:18 | 49.81083 | 12.41462 | 33063 ft | 495 kts | 105° |
| 2026-05-08 05:19 | 49.78961 | 12.51535 | 33055 ft | 495 kts | 111° |
| 2026-05-08 05:19 | 49.76113 | 12.61187 | 33059 ft | 495 kts | 117° |
| 2026-05-08 05:20 | 49.72971 | 12.70684 | 33056 ft | 495 kts | 118° |
| 2026-05-08 05:20 | 49.69832 | 12.80159 | 33070 ft | 496 kts | 118° |
| 2026-05-08 05:21 | 49.66698 | 12.89611 | 33072 ft | 496 kts | 118° |
| 2026-05-08 05:21 | 49.63555 | 12.99069 | 33071 ft | 496 kts | 118° |
| 2026-05-08 05:22 | 49.60419 | 13.08470 | 33076 ft | 497 kts | 118° |
| 2026-05-08 05:22 | 49.57250 | 13.17936 | 33082 ft | 497 kts | 118° |
| 2026-05-08 05:23 | 49.54089 | 13.27344 | 33071 ft | 498 kts | 118° |
| 2026-05-08 05:23 | 49.50899 | 13.36803 | 33075 ft | 498 kts | 118° |
| 2026-05-08 05:24 | 49.47723 | 13.46190 | 33069 ft | 498 kts | 118° |
| 2026-05-08 05:24 | 49.44514 | 13.55633 | 33074 ft | 498 kts | 118° |
| 2026-05-08 05:25 | 49.41327 | 13.64981 | 33068 ft | 499 kts | 118° |
| 2026-05-08 05:25 | 49.38073 | 13.74485 | 33069 ft | 499 kts | 119° |
| 2026-05-08 05:26 | 49.34848 | 13.83876 | 33068 ft | 499 kts | 119° |
| 2026-05-08 05:26 | 49.31595 | 13.93310 | 33070 ft | 499 kts | 119° |
| 2026-05-08 05:27 | 49.28341 | 14.02711 | 33073 ft | 500 kts | 119° |
| 2026-05-08 05:27 | 49.25102 | 14.12039 | 33068 ft | 500 kts | 119° |
| 2026-05-08 05:28 | 49.21814 | 14.21473 | 33069 ft | 501 kts | 119° |
| 2026-05-08 05:28 | 49.18557 | 14.30783 | 33074 ft | 500 kts | 119° |
| 2026-05-08 05:29 | 49.15275 | 14.40132 | 33072 ft | 501 kts | 119° |
| 2026-05-08 05:29 | 49.11968 | 14.49514 | 33068 ft | 501 kts | 119° |
| 2026-05-08 05:30 | 49.08662 | 14.58862 | 33070 ft | 501 kts | 119° |
| 2026-05-08 05:30 | 49.05344 | 14.68216 | 33066 ft | 502 kts | 120° |
| 2026-05-08 05:31 | 49.02028 | 14.77524 | 33066 ft | 502 kts | 120° |
| 2026-05-08 05:31 | 48.98696 | 14.86848 | 33063 ft | 503 kts | 120° |
| 2026-05-08 05:32 | 48.95340 | 14.96213 | 33070 ft | 503 kts | 120° |
| 2026-05-08 05:32 | 48.92009 | 15.05470 | 33066 ft | 503 kts | 120° |
| 2026-05-08 05:33 | 48.88662 | 15.14833 | 33061 ft | 503 kts | 119° |
| 2026-05-08 05:33 | 48.85495 | 15.24251 | 33056 ft | 503 kts | 118° |
| 2026-05-08 05:34 | 48.82312 | 15.33771 | 33058 ft | 504 kts | 118° |
| 2026-05-08 05:34 | 48.79123 | 15.43224 | 33062 ft | 504 kts | 118° |
| 2026-05-08 05:35 | 48.75946 | 15.52590 | 33062 ft | 504 kts | 118° |
| 2026-05-08 05:35 | 48.72724 | 15.62043 | 33067 ft | 504 kts | 118° |
| 2026-05-08 05:36 | 48.69489 | 15.71500 | 33066 ft | 504 kts | 120° |
| 2026-05-08 05:36 | 48.66260 | 15.80899 | 33070 ft | 505 kts | 120° |
| 2026-05-08 05:37 | 48.63025 | 15.90287 | 33074 ft | 505 kts | 120° |
| 2026-05-08 05:37 | 48.59776 | 15.99682 | 33079 ft | 505 kts | 120° |
| 2026-05-08 05:38 | 48.56528 | 16.09039 | 33079 ft | 506 kts | 120° |
| 2026-05-08 05:38 | 48.53265 | 16.18410 | 33078 ft | 506 kts | 120° |
| 2026-05-08 05:39 | 48.49982 | 16.27795 | 33077 ft | 506 kts | 120° |
| 2026-05-08 05:39 | 48.46687 | 16.37184 | 33075 ft | 507 kts | 120° |
| 2026-05-08 05:40 | 48.43408 | 16.46502 | 33074 ft | 507 kts | 120° |
| 2026-05-08 05:40 | 48.40089 | 16.55890 | 33074 ft | 507 kts | 120° |
| 2026-05-08 05:41 | 48.36801 | 16.65163 | 33074 ft | 507 kts | 121° |
| 2026-05-08 05:41 | 48.33453 | 16.74575 | 33074 ft | 507 kts | 121° |
| 2026-05-08 05:42 | 48.30129 | 16.83895 | 33071 ft | 507 kts | 121° |
| 2026-05-08 05:42 | 48.26799 | 16.93176 | 33069 ft | 507 kts | 121° |
| 2026-05-08 05:43 | 48.23371 | 17.02447 | 33064 ft | 508 kts | 122° |
| 2026-05-08 05:43 | 48.19917 | 17.11684 | 33058 ft | 509 kts | 122° |
| 2026-05-08 05:44 | 48.16459 | 17.20931 | 33058 ft | 509 kts | 122° |
| 2026-05-08 05:44 | 48.13008 | 17.30140 | 33053 ft | 509 kts | 122° |
| 2026-05-08 05:45 | 48.09520 | 17.39418 | 33053 ft | 509 kts | 122° |
| 2026-05-08 05:45 | 48.06043 | 17.48638 | 33046 ft | 509 kts | 122° |
| 2026-05-08 05:46 | 48.02573 | 17.57806 | 33045 ft | 509 kts | 122° |
| 2026-05-08 05:46 | 47.99063 | 17.67052 | 33043 ft | 510 kts | 123° |
| 2026-05-08 05:47 | 47.95573 | 17.76215 | 33039 ft | 510 kts | 123° |
| 2026-05-08 05:47 | 47.92061 | 17.85400 | 33046 ft | 510 kts | 123° |
| 2026-05-08 05:48 | 47.88561 | 17.94519 | 33056 ft | 510 kts | 123° |
| 2026-05-08 05:48 | 47.85037 | 18.03678 | 33040 ft | 510 kts | 123° |
| 2026-05-08 05:49 | 47.81524 | 18.12782 | 33054 ft | 511 kts | 123° |
| 2026-05-08 05:49 | 47.77980 | 18.21932 | 33048 ft | 511 kts | 123° |
| 2026-05-08 05:50 | 47.74451 | 18.31039 | 33055 ft | 512 kts | 122° |
| 2026-05-08 05:50 | 47.71292 | 18.40516 | 33056 ft | 514 kts | 118° |
| 2026-05-08 05:51 | 47.68298 | 18.50111 | 33055 ft | 514 kts | 117° |
| 2026-05-08 05:51 | 47.65293 | 18.59711 | 33048 ft | 513 kts | 118° |
| 2026-05-08 05:52 | 47.62286 | 18.69260 | 33042 ft | 513 kts | 118° |
| 2026-05-08 05:52 | 47.59270 | 18.78798 | 33046 ft | 512 kts | 118° |
| 2026-05-08 05:53 | 47.56230 | 18.88369 | 33049 ft | 513 kts | 118° |
| 2026-05-08 05:53 | 47.53202 | 18.97864 | 33048 ft | 513 kts | 119° |
| 2026-05-08 05:54 | 47.50161 | 19.07365 | 33045 ft | 513 kts | 118° |
| 2026-05-08 05:54 | 47.47105 | 19.16881 | 33045 ft | 514 kts | 118° |
| 2026-05-08 05:55 | 47.44040 | 19.26388 | 33043 ft | 513 kts | 118° |
| 2026-05-08 05:55 | 47.40956 | 19.35921 | 33047 ft | 513 kts | 118° |
| 2026-05-08 05:56 | 47.37893 | 19.45350 | 33040 ft | 514 kts | 118° |
| 2026-05-08 05:56 | 47.34795 | 19.54851 | 33044 ft | 513 kts | 118° |
| 2026-05-08 05:57 | 47.31703 | 19.64303 | 33044 ft | 512 kts | 118° |
| 2026-05-08 05:57 | 47.28611 | 19.73722 | 33041 ft | 511 kts | 120° |
| 2026-05-08 05:58 | 47.25514 | 19.83119 | 33042 ft | 511 kts | 120° |
| 2026-05-08 05:58 | 47.22433 | 19.92424 | 33045 ft | 510 kts | 120° |
| 2026-05-08 05:59 | 47.19322 | 20.01794 | 33047 ft | 510 kts | 120° |
| 2026-05-08 05:59 | 47.16199 | 20.11165 | 33052 ft | 511 kts | 120° |
| 2026-05-08 06:00 | 47.13086 | 20.20478 | 33050 ft | 510 kts | 120° |
| 2026-05-08 06:00 | 47.09958 | 20.29797 | 33047 ft | 512 kts | 120° |
| 2026-05-08 06:01 | 47.06812 | 20.39142 | 33042 ft | 511 kts | 120° |
| 2026-05-08 06:01 | 47.03663 | 20.48458 | 33045 ft | 511 kts | 120° |
| 2026-05-08 06:02 | 47.00528 | 20.57695 | 33052 ft | 511 kts | 120° |
| 2026-05-08 06:02 | 46.97352 | 20.67023 | 33049 ft | 511 kts | 121° |
| 2026-05-08 06:03 | 46.94188 | 20.76288 | 33052 ft | 511 kts | 121° |
| 2026-05-08 06:03 | 46.91007 | 20.85568 | 33049 ft | 511 kts | 121° |
| 2026-05-08 06:04 | 46.87811 | 20.94852 | 33050 ft | 511 kts | 121° |
| 2026-05-08 06:04 | 46.84616 | 21.04109 | 33055 ft | 511 kts | 121° |
| 2026-05-08 06:05 | 46.81425 | 21.13318 | 33054 ft | 511 kts | 121° |
| 2026-05-08 06:05 | 46.78226 | 21.22523 | 33052 ft | 511 kts | 121° |
| 2026-05-08 06:06 | 46.75019 | 21.31721 | 33052 ft | 511 kts | 121° |
| 2026-05-08 06:06 | 46.71799 | 21.40926 | 33054 ft | 511 kts | 121° |
| 2026-05-08 06:07 | 46.68555 | 21.50101 | 33055 ft | 509 kts | 122° |
| 2026-05-08 06:07 | 46.65108 | 21.58997 | 33140 ft | 511 kts | 123° |
| 2026-05-08 06:07 | 46.63358 | 21.63478 | 33441 ft | 509 kts | 123° |
| 2026-05-08 06:08 | 46.61599 | 21.67982 | 33766 ft | 507 kts | 124° |
| 2026-05-08 06:08 | 46.59855 | 21.72449 | 34072 ft | 505 kts | 124° |
| 2026-05-08 06:08 | 46.58143 | 21.76821 | 34313 ft | 505 kts | 124° |
| 2026-05-08 06:08 | 46.56392 | 21.81292 | 34509 ft | 505 kts | 124° |
| 2026-05-08 06:09 | 46.54659 | 21.85705 | 34663 ft | 505 kts | 124° |
| 2026-05-08 06:09 | 46.52932 | 21.90101 | 34848 ft | 505 kts | 124° |
| 2026-05-08 06:09 | 46.51200 | 21.94503 | 35013 ft | 505 kts | 124° |
| 2026-05-08 06:10 | 46.47736 | 22.03287 | 35054 ft | 503 kts | 124° |
| 2026-05-08 06:10 | 46.44247 | 22.12111 | 35056 ft | 503 kts | 124° |
| 2026-05-08 06:11 | 46.40791 | 22.20820 | 35059 ft | 502 kts | 124° |
| 2026-05-08 06:11 | 46.37300 | 22.29591 | 35052 ft | 501 kts | 124° |
| 2026-05-08 06:12 | 46.33835 | 22.38259 | 35059 ft | 502 kts | 124° |
| 2026-05-08 06:12 | 46.30338 | 22.46990 | 35061 ft | 501 kts | 124° |
| 2026-05-08 06:13 | 46.26846 | 22.55675 | 35054 ft | 502 kts | 123° |
| 2026-05-08 06:13 | 46.23336 | 22.64377 | 35059 ft | 502 kts | 123° |
| 2026-05-08 06:14 | 46.19834 | 22.73044 | 35059 ft | 501 kts | 124° |
| 2026-05-08 06:14 | 46.16319 | 22.81708 | 35058 ft | 499 kts | 124° |
| 2026-05-08 06:15 | 46.12826 | 22.90287 | 35058 ft | 499 kts | 124° |
| 2026-05-08 06:15 | 46.09322 | 22.98870 | 35058 ft | 498 kts | 124° |
| 2026-05-08 06:16 | 46.05797 | 23.07477 | 35059 ft | 499 kts | 124° |
| 2026-05-08 06:16 | 46.02277 | 23.16044 | 35055 ft | 500 kts | 124° |
| 2026-05-08 06:17 | 45.96973 | 23.28902 | 35052 ft | 499 kts | 124° |
| 2026-05-08 06:17 | 45.93425 | 23.37472 | 35052 ft | 499 kts | 124° |
| 2026-05-08 06:18 | 45.89874 | 23.46023 | 35052 ft | 500 kts | 124° |
| 2026-05-08 06:18 | 45.86317 | 23.54562 | 35052 ft | 500 kts | 124° |
| 2026-05-08 06:19 | 45.82755 | 23.63089 | 35056 ft | 500 kts | 124° |
| 2026-05-08 06:19 | 45.79186 | 23.71604 | 35059 ft | 499 kts | 125° |
| 2026-05-08 06:20 | 45.75614 | 23.80105 | 35063 ft | 499 kts | 125° |
| 2026-05-08 06:20 | 45.72036 | 23.88582 | 35062 ft | 499 kts | 124° |
| 2026-05-08 06:21 | 45.68448 | 23.97065 | 35061 ft | 500 kts | 124° |
| 2026-05-08 06:21 | 45.64852 | 24.05541 | 35063 ft | 501 kts | 124° |
| 2026-05-08 06:22 | 45.61243 | 24.14024 | 35062 ft | 500 kts | 124° |
| 2026-05-08 06:22 | 45.57626 | 24.22498 | 35061 ft | 500 kts | 124° |
| 2026-05-08 06:23 | 45.54004 | 24.30959 | 35062 ft | 500 kts | 124° |
| 2026-05-08 06:23 | 45.50386 | 24.39383 | 35069 ft | 500 kts | 124° |
| 2026-05-08 06:24 | 45.46752 | 24.47819 | 35080 ft | 501 kts | 124° |
| 2026-05-08 06:24 | 45.43111 | 24.56246 | 35088 ft | 501 kts | 124° |
| 2026-05-08 06:25 | 45.39464 | 24.64667 | 35090 ft | 501 kts | 124° |
| 2026-05-08 06:25 | 45.35787 | 24.73131 | 35087 ft | 501 kts | 124° |
| 2026-05-08 06:26 | 45.32135 | 24.81513 | 35087 ft | 501 kts | 124° |
| 2026-05-08 06:26 | 45.28455 | 24.89928 | 35082 ft | 502 kts | 124° |
| 2026-05-08 06:27 | 45.24776 | 24.98320 | 35072 ft | 502 kts | 124° |
| 2026-05-08 06:27 | 45.21089 | 25.06701 | 35069 ft | 502 kts | 124° |
| 2026-05-08 06:28 | 45.17387 | 25.15096 | 35071 ft | 501 kts | 124° |
| 2026-05-08 06:28 | 45.13701 | 25.23432 | 35072 ft | 501 kts | 124° |
| 2026-05-08 06:29 | 45.10009 | 25.31759 | 35070 ft | 500 kts | 124° |
| 2026-05-08 06:29 | 45.06315 | 25.40064 | 35065 ft | 500 kts | 124° |
| 2026-05-08 06:30 | 45.02600 | 25.48391 | 35063 ft | 499 kts | 124° |
| 2026-05-08 06:30 | 44.98912 | 25.56640 | 35061 ft | 499 kts | 124° |
| 2026-05-08 06:31 | 44.95222 | 25.64871 | 35055 ft | 499 kts | 124° |
| 2026-05-08 06:31 | 44.91480 | 25.73190 | 35051 ft | 499 kts | 125° |
| 2026-05-08 06:32 | 44.87943 | 25.81603 | 35046 ft | 499 kts | 122° |
| 2026-05-08 06:32 | 44.84479 | 25.90105 | 35047 ft | 499 kts | 122° |
| 2026-05-08 06:33 | 44.81055 | 25.98500 | 35042 ft | 498 kts | 121° |
| 2026-05-08 06:33 | 44.77594 | 26.06953 | 35037 ft | 498 kts | 121° |
| 2026-05-08 06:34 | 44.74153 | 26.15332 | 35033 ft | 498 kts | 121° |
| 2026-05-08 06:34 | 44.70698 | 26.23722 | 35039 ft | 499 kts | 121° |
| 2026-05-08 06:35 | 44.67206 | 26.32176 | 35042 ft | 499 kts | 121° |
| 2026-05-08 06:35 | 44.63730 | 26.40566 | 35044 ft | 499 kts | 121° |
| 2026-05-08 06:36 | 44.60238 | 26.48970 | 35043 ft | 500 kts | 121° |
| 2026-05-08 06:36 | 44.56762 | 26.57311 | 35042 ft | 500 kts | 121° |
| 2026-05-08 06:37 | 44.53228 | 26.65762 | 35035 ft | 501 kts | 122° |
| 2026-05-08 06:37 | 44.49710 | 26.74154 | 35040 ft | 501 kts | 122° |
| 2026-05-08 06:38 | 44.46197 | 26.82507 | 35041 ft | 501 kts | 122° |
| 2026-05-08 06:38 | 44.42660 | 26.90893 | 35042 ft | 501 kts | 121° |
| 2026-05-08 06:39 | 44.39132 | 26.99231 | 35043 ft | 502 kts | 121° |
| 2026-05-08 06:39 | 44.35579 | 27.07609 | 35045 ft | 501 kts | 121° |
| 2026-05-08 06:40 | 44.32035 | 27.15942 | 35044 ft | 501 kts | 121° |
| 2026-05-08 06:40 | 44.28470 | 27.24295 | 35046 ft | 501 kts | 121° |
| 2026-05-08 06:41 | 44.24912 | 27.32609 | 35047 ft | 500 kts | 121° |
| 2026-05-08 06:41 | 44.21373 | 27.40856 | 35048 ft | 500 kts | 121° |
| 2026-05-08 06:42 | 44.17794 | 27.49169 | 35050 ft | 500 kts | 121° |
| 2026-05-08 06:42 | 44.14218 | 27.57455 | 35051 ft | 500 kts | 121° |
| 2026-05-08 06:43 | 44.10630 | 27.65740 | 35053 ft | 500 kts | 122° |
| 2026-05-08 06:43 | 44.07056 | 27.73976 | 35056 ft | 499 kts | 122° |
| 2026-05-08 06:44 | 44.03476 | 27.82200 | 35061 ft | 499 kts | 122° |
| 2026-05-08 06:44 | 43.99897 | 27.90393 | 35064 ft | 499 kts | 121° |
| 2026-05-08 06:45 | 43.96292 | 27.98628 | 35063 ft | 499 kts | 121° |
| 2026-05-08 06:45 | 43.92686 | 28.06847 | 35075 ft | 499 kts | 122° |
| 2026-05-08 06:46 | 43.89077 | 28.15045 | 35077 ft | 498 kts | 121° |
| 2026-05-08 06:46 | 43.85493 | 28.23161 | 35068 ft | 497 kts | 122° |
| 2026-05-08 06:47 | 43.81885 | 28.31313 | 35076 ft | 497 kts | 121° |
| 2026-05-08 06:47 | 43.78268 | 28.39470 | 35076 ft | 497 kts | 121° |
| 2026-05-08 06:48 | 43.74661 | 28.47578 | 35073 ft | 496 kts | 122° |
| 2026-05-08 06:48 | 43.71005 | 28.55646 | 35073 ft | 496 kts | 122° |
| 2026-05-08 06:49 | 43.67302 | 28.63639 | 35075 ft | 496 kts | 122° |
| 2026-05-08 06:49 | 43.63603 | 28.71624 | 35072 ft | 496 kts | 123° |
| 2026-05-08 06:50 | 43.59913 | 28.79584 | 35077 ft | 496 kts | 123° |
| 2026-05-08 06:50 | 43.56208 | 28.87563 | 35079 ft | 495 kts | 123° |
| 2026-05-08 06:51 | 43.52511 | 28.95507 | 35084 ft | 494 kts | 123° |
| 2026-05-08 06:51 | 43.48811 | 29.03431 | 35097 ft | 494 kts | 123° |
| 2026-05-08 06:52 | 43.45105 | 29.11349 | 35087 ft | 493 kts | 123° |
| 2026-05-08 06:52 | 43.41388 | 29.19270 | 35088 ft | 494 kts | 123° |
| 2026-05-08 06:53 | 43.37676 | 29.27157 | 35083 ft | 494 kts | 123° |
| 2026-05-08 06:53 | 43.33953 | 29.35049 | 35085 ft | 493 kts | 123° |
| 2026-05-08 06:54 | 43.30233 | 29.42912 | 35091 ft | 493 kts | 123° |
| 2026-05-08 06:54 | 43.26508 | 29.50763 | 35098 ft | 493 kts | 123° |
| 2026-05-08 06:55 | 43.22783 | 29.58594 | 35099 ft | 491 kts | 123° |
| 2026-05-08 06:55 | 43.19059 | 29.66403 | 35091 ft | 491 kts | 124° |
| 2026-05-08 06:56 | 43.15312 | 29.74243 | 35095 ft | 491 kts | 124° |
| 2026-05-08 06:56 | 43.11588 | 29.82013 | 35094 ft | 491 kts | 124° |
| 2026-05-08 06:57 | 43.07853 | 29.89783 | 35095 ft | 490 kts | 124° |
| 2026-05-08 06:57 | 43.04127 | 29.97512 | 35098 ft | 490 kts | 124° |
| 2026-05-08 06:58 | 43.00386 | 30.05256 | 35088 ft | 491 kts | 124° |
| 2026-05-08 06:58 | 42.96627 | 30.13018 | 35095 ft | 492 kts | 123° |
| 2026-05-08 06:59 | 42.92854 | 30.20790 | 35094 ft | 492 kts | 123° |
| 2026-05-08 06:59 | 42.89060 | 30.28587 | 35096 ft | 492 kts | 123° |
| 2026-05-08 07:00 | 42.85289 | 30.36318 | 35098 ft | 491 kts | 123° |
| 2026-05-08 07:00 | 42.81511 | 30.44045 | 35096 ft | 491 kts | 123° |
| 2026-05-08 07:01 | 42.77846 | 30.51854 | 35104 ft | 491 kts | 118° |
| 2026-05-08 07:01 | 42.74941 | 30.60213 | 35094 ft | 492 kts | 110° |
| 2026-05-08 07:02 | 42.72972 | 30.69085 | 35105 ft | 490 kts | 101° |
| 2026-05-08 07:02 | 42.71889 | 30.78183 | 35109 ft | 489 kts | 96° |
| 2026-05-08 07:03 | 42.70996 | 30.87305 | 35101 ft | 489 kts | 96° |
| 2026-05-08 07:03 | 42.70076 | 30.96477 | 35118 ft | 489 kts | 96° |
| 2026-05-08 07:04 | 42.69139 | 31.05586 | 35111 ft | 488 kts | 96° |
| 2026-05-08 07:04 | 42.68191 | 31.14668 | 35103 ft | 488 kts | 96° |
| 2026-05-08 07:05 | 42.67232 | 31.23788 | 35102 ft | 488 kts | 96° |
| 2026-05-08 07:05 | 42.66265 | 31.32897 | 35107 ft | 490 kts | 96° |
| 2026-05-08 07:06 | 42.65290 | 31.42016 | 35104 ft | 490 kts | 96° |
| 2026-05-08 07:06 | 42.64312 | 31.51120 | 35106 ft | 489 kts | 96° |
| 2026-05-08 07:07 | 42.63321 | 31.60262 | 35105 ft | 490 kts | 96° |
| 2026-05-08 07:07 | 42.62322 | 31.69408 | 35111 ft | 491 kts | 97° |
| 2026-05-08 07:08 | 42.61318 | 31.78525 | 35107 ft | 491 kts | 97° |
| 2026-05-08 07:08 | 42.60311 | 31.87627 | 35111 ft | 491 kts | 96° |
| 2026-05-08 07:09 | 42.59293 | 31.96758 | 35111 ft | 490 kts | 96° |
| 2026-05-08 07:09 | 42.58275 | 32.05877 | 35107 ft | 490 kts | 96° |
| 2026-05-08 07:10 | 42.57238 | 32.14996 | 35107 ft | 490 kts | 96° |
| 2026-05-08 07:10 | 42.56192 | 32.24062 | 35109 ft | 491 kts | 96° |
| 2026-05-08 07:11 | 42.55135 | 32.33203 | 35111 ft | 491 kts | 96° |
| 2026-05-08 07:11 | 42.54078 | 32.42303 | 35108 ft | 491 kts | 96° |
| 2026-05-08 07:12 | 42.53013 | 32.51406 | 35111 ft | 491 kts | 96° |
| 2026-05-08 07:12 | 42.51942 | 32.60496 | 35116 ft | 490 kts | 96° |
| 2026-05-08 07:13 | 42.50864 | 32.69588 | 35113 ft | 491 kts | 96° |
| 2026-05-08 07:13 | 42.49777 | 32.78691 | 35110 ft | 490 kts | 96° |
| 2026-05-08 07:14 | 42.48687 | 32.87751 | 35115 ft | 490 kts | 96° |
| 2026-05-08 07:14 | 42.47588 | 32.96849 | 35113 ft | 490 kts | 96° |
| 2026-05-08 07:15 | 42.46489 | 33.05893 | 35116 ft | 489 kts | 96° |
| 2026-05-08 07:15 | 42.45376 | 33.14952 | 35116 ft | 489 kts | 96° |
| 2026-05-08 07:16 | 42.44247 | 33.24031 | 35114 ft | 489 kts | 96° |
| 2026-05-08 07:16 | 42.43120 | 33.33080 | 35115 ft | 489 kts | 96° |
| 2026-05-08 07:17 | 42.41987 | 33.42116 | 35122 ft | 488 kts | 96° |
| 2026-05-08 07:17 | 42.40842 | 33.51129 | 35122 ft | 489 kts | 96° |
| 2026-05-08 07:18 | 42.39688 | 33.60202 | 35125 ft | 489 kts | 96° |
| 2026-05-08 07:18 | 42.38537 | 33.69221 | 35129 ft | 489 kts | 97° |
| 2026-05-08 07:19 | 42.37373 | 33.78277 | 35125 ft | 488 kts | 96° |
| 2026-05-08 07:19 | 42.36215 | 33.87231 | 35131 ft | 487 kts | 96° |
| 2026-05-08 07:20 | 42.35040 | 33.96230 | 35125 ft | 487 kts | 96° |
| 2026-05-08 07:20 | 42.33862 | 34.05207 | 35133 ft | 486 kts | 96° |
| 2026-05-08 07:21 | 42.32684 | 34.14172 | 35140 ft | 486 kts | 96° |
| 2026-05-08 07:21 | 42.31500 | 34.23138 | 35141 ft | 485 kts | 96° |
| 2026-05-08 07:22 | 42.30315 | 34.32062 | 35141 ft | 485 kts | 96° |
| 2026-05-08 07:22 | 42.29116 | 34.40999 | 35144 ft | 485 kts | 96° |
| 2026-05-08 07:23 | 42.27906 | 34.49929 | 35145 ft | 484 kts | 96° |
| 2026-05-08 07:23 | 42.26696 | 34.58820 | 35145 ft | 483 kts | 96° |
| 2026-05-08 07:24 | 42.25479 | 34.67752 | 35141 ft | 483 kts | 97° |
| 2026-05-08 07:24 | 42.24261 | 34.76622 | 35140 ft | 483 kts | 97° |
| 2026-05-08 07:25 | 42.23027 | 34.85496 | 35142 ft | 482 kts | 97° |
| 2026-05-08 07:26 | 42.21160 | 34.98808 | 35147 ft | 482 kts | 97° |
| 2026-05-08 07:26 | 42.19917 | 35.07636 | 35152 ft | 481 kts | 97° |
| 2026-05-08 07:27 | 42.18670 | 35.16462 | 35152 ft | 481 kts | 97° |
| 2026-05-08 07:27 | 42.17418 | 35.25259 | 35155 ft | 480 kts | 97° |
| 2026-05-08 07:28 | 42.16159 | 35.34083 | 35156 ft | 480 kts | 97° |
| 2026-05-08 07:28 | 42.14894 | 35.42865 | 35154 ft | 480 kts | 97° |
| 2026-05-08 07:29 | 42.13617 | 35.51637 | 35153 ft | 479 kts | 97° |
| 2026-05-08 07:29 | 42.12334 | 35.60434 | 35158 ft | 478 kts | 97° |
| 2026-05-08 07:30 | 42.11055 | 35.69176 | 35162 ft | 478 kts | 98° |
| 2026-05-08 07:30 | 42.09766 | 35.77938 | 35158 ft | 478 kts | 98° |
| 2026-05-08 07:31 | 42.08476 | 35.86666 | 35164 ft | 478 kts | 98° |
| 2026-05-08 07:31 | 42.07175 | 35.95423 | 35162 ft | 477 kts | 98° |
| 2026-05-08 07:32 | 42.05868 | 36.04168 | 35187 ft | 477 kts | 98° |
| 2026-05-08 07:32 | 42.04563 | 36.12852 | 35180 ft | 476 kts | 98° |
| 2026-05-08 07:33 | 42.03256 | 36.21510 | 35174 ft | 475 kts | 98° |
| 2026-05-08 07:33 | 42.01931 | 36.30227 | 35176 ft | 474 kts | 98° |
| 2026-05-08 07:34 | 42.00614 | 36.38851 | 35180 ft | 473 kts | 98° |
| 2026-05-08 07:34 | 41.99287 | 36.47494 | 35183 ft | 473 kts | 98° |
| 2026-05-08 07:35 | 41.97961 | 36.56101 | 35180 ft | 472 kts | 98° |
| 2026-05-08 07:35 | 41.96634 | 36.64666 | 35183 ft | 471 kts | 98° |
| 2026-05-08 07:36 | 41.95289 | 36.73307 | 35180 ft | 472 kts | 99° |
| 2026-05-08 07:36 | 41.93947 | 36.81885 | 35183 ft | 471 kts | 99° |
| 2026-05-08 07:37 | 41.92596 | 36.90474 | 35177 ft | 471 kts | 99° |
| 2026-05-08 07:37 | 41.91218 | 36.99045 | 35177 ft | 471 kts | 101° |
| 2026-05-08 07:38 | 41.89357 | 37.07414 | 35166 ft | 472 kts | 107° |
| 2026-05-08 07:38 | 41.86884 | 37.15589 | 35167 ft | 473 kts | 110° |
| 2026-05-08 07:39 | 41.84323 | 37.23699 | 35169 ft | 474 kts | 110° |
| 2026-05-08 07:39 | 41.81748 | 37.31850 | 35175 ft | 474 kts | 110° |
| 2026-05-08 07:40 | 41.79198 | 37.39907 | 35175 ft | 474 kts | 110° |
| 2026-05-08 07:40 | 41.76614 | 37.48052 | 35170 ft | 474 kts | 110° |
| 2026-05-08 07:41 | 41.74047 | 37.56135 | 35175 ft | 473 kts | 110° |
| 2026-05-08 07:41 | 41.71470 | 37.64211 | 35175 ft | 473 kts | 110° |
| 2026-05-08 07:42 | 41.68876 | 37.72287 | 35176 ft | 474 kts | 110° |
| 2026-05-08 07:42 | 41.66270 | 37.80371 | 35169 ft | 474 kts | 110° |
| 2026-05-08 07:43 | 41.63672 | 37.88422 | 35190 ft | 474 kts | 110° |
| 2026-05-08 07:43 | 41.61079 | 37.96445 | 35179 ft | 474 kts | 110° |
| 2026-05-08 07:44 | 41.58461 | 38.04528 | 35180 ft | 473 kts | 110° |
| 2026-05-08 07:44 | 41.55840 | 38.12592 | 35353 ft | 475 kts | 110° |
| 2026-05-08 07:44 | 41.54536 | 38.16597 | 35510 ft | 474 kts | 110° |
| 2026-05-08 07:45 | 41.53218 | 38.20638 | 35637 ft | 473 kts | 110° |
| 2026-05-08 07:45 | 41.51904 | 38.24659 | 35740 ft | 474 kts | 110° |
| 2026-05-08 07:45 | 41.50594 | 38.28664 | 35847 ft | 475 kts | 110° |
| 2026-05-08 07:45 | 41.49277 | 38.32687 | 35957 ft | 475 kts | 110° |
| 2026-05-08 07:46 | 41.47964 | 38.36692 | 36111 ft | 475 kts | 110° |
| 2026-05-08 07:46 | 41.46635 | 38.40734 | 36281 ft | 475 kts | 110° |
| 2026-05-08 07:46 | 41.45324 | 38.44719 | 36448 ft | 475 kts | 110° |
| 2026-05-08 07:46 | 41.44001 | 38.48735 | 36602 ft | 475 kts | 110° |
| 2026-05-08 07:47 | 41.42672 | 38.52762 | 36743 ft | 476 kts | 110° |
| 2026-05-08 07:47 | 41.41340 | 38.56796 | 36891 ft | 476 kts | 110° |
| 2026-05-08 07:47 | 41.40018 | 38.60796 | 37016 ft | 476 kts | 111° |
| 2026-05-08 07:47 | 41.38687 | 38.64818 | 37153 ft | 477 kts | 111° |
| 2026-05-08 07:48 | 41.37338 | 38.68891 | 37173 ft | 478 kts | 111° |
| 2026-05-08 07:48 | 41.34665 | 38.76924 | 37166 ft | 478 kts | 111° |
| 2026-05-08 07:49 | 41.31988 | 38.85028 | 37165 ft | 477 kts | 111° |
| 2026-05-08 07:49 | 41.29353 | 38.93091 | 37162 ft | 477 kts | 111° |
| 2026-05-08 07:50 | 41.26720 | 39.01137 | 37158 ft | 477 kts | 111° |
| 2026-05-08 07:50 | 41.24085 | 39.09160 | 37152 ft | 478 kts | 111° |
| 2026-05-08 07:51 | 41.21428 | 39.17211 | 37151 ft | 478 kts | 111° |
| 2026-05-08 07:51 | 41.18649 | 39.25231 | 37154 ft | 478 kts | 112° |
| 2026-05-08 07:52 | 41.15844 | 39.33198 | 37156 ft | 479 kts | 112° |
| 2026-05-08 07:52 | 41.13036 | 39.41196 | 37153 ft | 479 kts | 112° |
| 2026-05-08 07:53 | 41.10235 | 39.49178 | 37166 ft | 478 kts | 112° |
| 2026-05-08 07:53 | 41.07451 | 39.57101 | 37160 ft | 478 kts | 112° |
| 2026-05-08 07:54 | 41.04645 | 39.65054 | 37170 ft | 478 kts | 113° |
| 2026-05-08 07:54 | 41.02055 | 39.73179 | 37181 ft | 476 kts | 107° |
| 2026-05-08 07:55 | 41.00253 | 39.81554 | 37287 ft | 475 kts | 99° |
| 2026-05-08 07:55 | 40.99268 | 39.90142 | 37218 ft | 471 kts | 92° |
| 2026-05-08 07:56 | 40.98988 | 39.98724 | 37190 ft | 470 kts | 89° |
| 2026-05-08 07:56 | 40.98819 | 40.07320 | 37187 ft | 469 kts | 89° |
| 2026-05-08 07:57 | 40.98623 | 40.15954 | 37173 ft | 469 kts | 89° |
| 2026-05-08 07:57 | 40.98399 | 40.24562 | 37180 ft | 469 kts | 89° |
| 2026-05-08 07:58 | 40.98157 | 40.33138 | 37166 ft | 469 kts | 89° |
| 2026-05-08 07:58 | 40.97914 | 40.41737 | 37175 ft | 470 kts | 89° |
| 2026-05-08 07:59 | 40.97666 | 40.50354 | 37175 ft | 472 kts | 89° |
| 2026-05-08 07:59 | 40.97411 | 40.59005 | 37193 ft | 472 kts | 90° |
| 2026-05-08 08:00 | 40.97149 | 40.67689 | 37195 ft | 473 kts | 90° |
| 2026-05-08 08:00 | 40.96884 | 40.76355 | 37187 ft | 473 kts | 90° |
| 2026-05-08 08:01 | 40.96610 | 40.85043 | 37204 ft | 473 kts | 90° |
| 2026-05-08 08:01 | 40.96324 | 40.93695 | 37203 ft | 474 kts | 90° |
| 2026-05-08 08:02 | 40.96027 | 41.02408 | 37201 ft | 475 kts | 91° |
| 2026-05-08 08:02 | 40.95726 | 41.11127 | 37196 ft | 476 kts | 91° |
| 2026-05-08 08:03 | 40.95420 | 41.19829 | 37202 ft | 477 kts | 90° |
| 2026-05-08 08:03 | 40.95108 | 41.28576 | 37183 ft | 477 kts | 91° |
| 2026-05-08 08:04 | 40.94791 | 41.37267 | 37174 ft | 476 kts | 91° |
| 2026-05-08 08:04 | 40.94468 | 41.45992 | 37180 ft | 476 kts | 91° |
| 2026-05-08 08:05 | 40.94138 | 41.54714 | 37191 ft | 477 kts | 91° |
| 2026-05-08 08:05 | 40.93800 | 41.63435 | 37206 ft | 478 kts | 91° |
| 2026-05-08 08:06 | 40.93454 | 41.72195 | 37210 ft | 479 kts | 92° |
| 2026-05-08 08:06 | 40.93101 | 41.80986 | 37215 ft | 479 kts | 92° |
| 2026-05-08 08:07 | 40.92742 | 41.89771 | 37217 ft | 480 kts | 92° |
| 2026-05-08 08:07 | 40.92376 | 41.98515 | 37208 ft | 479 kts | 92° |
| 2026-05-08 08:08 | 40.92002 | 42.07307 | 37194 ft | 479 kts | 92° |
| 2026-05-08 08:08 | 40.91625 | 42.16047 | 37198 ft | 480 kts | 92° |
| 2026-05-08 08:09 | 40.91238 | 42.24858 | 37194 ft | 480 kts | 92° |
| 2026-05-08 08:09 | 40.90844 | 42.33675 | 37193 ft | 481 kts | 92° |
| 2026-05-08 08:10 | 40.90445 | 42.42453 | 37200 ft | 481 kts | 92° |
| 2026-05-08 08:10 | 40.90039 | 42.51206 | 37198 ft | 481 kts | 92° |
| 2026-05-08 08:11 | 40.89623 | 42.60036 | 37202 ft | 482 kts | 92° |
| 2026-05-08 08:11 | 40.89199 | 42.68900 | 37214 ft | 483 kts | 93° |
| 2026-05-08 08:12 | 40.88769 | 42.77748 | 37216 ft | 483 kts | 93° |
| 2026-05-08 08:12 | 40.88337 | 42.86515 | 37225 ft | 483 kts | 93° |
| 2026-05-08 08:13 | 40.87896 | 42.95361 | 37231 ft | 483 kts | 94° |
| 2026-05-08 08:13 | 40.87447 | 43.04182 | 37243 ft | 483 kts | 94° |
| 2026-05-08 08:14 | 40.86989 | 43.13031 | 37249 ft | 483 kts | 94° |
| 2026-05-08 08:14 | 40.86529 | 43.21815 | 37235 ft | 484 kts | 94° |
| 2026-05-08 08:15 | 40.86059 | 43.30682 | 37246 ft | 485 kts | 94° |
| 2026-05-08 08:15 | 40.85583 | 43.39515 | 37239 ft | 486 kts | 94° |
| 2026-05-08 08:16 | 40.85099 | 43.48410 | 37235 ft | 487 kts | 94° |
| 2026-05-08 08:16 | 40.84610 | 43.57285 | 37227 ft | 487 kts | 94° |
| 2026-05-08 08:17 | 40.84110 | 43.66226 | 37228 ft | 488 kts | 95° |
| 2026-05-08 08:17 | 40.83723 | 43.75140 | 37228 ft | 487 kts | 93° |
| 2026-05-08 08:18 | 40.83472 | 43.84019 | 37224 ft | 487 kts | 93° |
| 2026-05-08 08:18 | 40.83177 | 43.92926 | 37215 ft | 487 kts | 93° |
| 2026-05-08 08:19 | 40.82870 | 44.01849 | 37224 ft | 488 kts | 93° |
| 2026-05-08 08:19 | 40.82559 | 44.10765 | 37221 ft | 488 kts | 94° |
| 2026-05-08 08:20 | 40.82242 | 44.19677 | 37214 ft | 489 kts | 94° |
| 2026-05-08 08:20 | 40.81919 | 44.28608 | 37199 ft | 490 kts | 94° |
| 2026-05-08 08:21 | 40.81587 | 44.37546 | 37199 ft | 489 kts | 94° |